Terminal Aerodrome Forecast
Issued by NWS

Home | Current Version | Previous Version | Graphics & Text | Print | Product List | Glossary On
Versions: 1 2 3 4 5 6 7 8 9 10 11
000
FTUS43 KPAH 212330
TAFOWB
TAF
KOWB 212330Z 2200/2224 15004KT P6SM SKC
      TEMPO 2211/2213 3SM BR
     FM221400 12005KT P6SM FEW035=

USA.gov is the U.S. government's official web portal to all federal, state and local government web resources and services.